createdAt,value
2023-02-22T00:00:59.875Z,7.95
2023-02-22T00:03:32.323Z,7.98
2023-02-22T00:06:05.683Z,7.96
2023-02-22T00:08:36.122Z,7.90
2023-02-22T00:11:08.944Z,7.87
2023-02-22T00:13:38.215Z,7.88
2023-02-22T00:16:06.465Z,7.85
2023-02-22T00:18:33.594Z,7.74
2023-02-22T00:21:01.685Z,7.76
2023-02-22T00:23:31.082Z,7.82
2023-02-22T00:26:00.175Z,7.81
2023-02-22T00:28:27.461Z,7.74
2023-02-22T00:30:55.047Z,7.80
2023-02-22T00:33:22.828Z,7.79
2023-02-22T00:35:50.108Z,7.79
2023-02-22T00:38:19.444Z,7.75
2023-02-22T00:40:46.708Z,7.78
2023-02-22T00:43:14.691Z,7.78
2023-02-22T00:45:42.345Z,7.71
2023-02-22T00:48:10.547Z,7.76
2023-02-22T00:50:38.030Z,7.77
2023-02-22T00:53:07.296Z,7.73
2023-02-22T00:55:37.065Z,7.77
2023-02-22T00:58:05.311Z,7.76
2023-02-22T01:00:41.716Z,7.69
2023-02-22T01:03:13.533Z,7.74
2023-02-22T01:05:40.770Z,7.64
2023-02-22T01:08:10.781Z,7.66
2023-02-22T01:10:39.586Z,7.62
2023-02-22T01:13:12.435Z,7.60
2023-02-22T01:15:43.231Z,7.55
2023-02-22T01:18:12.561Z,7.56
2023-02-22T01:20:39.682Z,7.48
2023-02-22T01:23:08.042Z,7.46
2023-02-22T01:25:36.073Z,7.29
2023-02-22T01:28:05.716Z,7.47
2023-02-22T01:30:35.826Z,7.45
2023-02-22T01:33:06.146Z,7.45
2023-02-22T01:35:37.188Z,7.39
2023-02-22T01:38:04.270Z,7.41
2023-02-22T01:40:39.266Z,7.28
2023-02-22T01:43:20.077Z,7.34
2023-02-22T01:45:52.976Z,7.30
2023-02-22T01:48:49.144Z,7.30
2023-02-22T01:51:18.734Z,7.29
2023-02-22T01:53:59.871Z,7.24
2023-02-22T01:56:29.732Z,7.22
2023-02-22T01:59:10.281Z,7.24
2023-02-22T02:01:42.937Z,7.21
2023-02-22T02:04:19.555Z,7.08
2023-02-22T02:06:47.361Z,7.19
2023-02-22T02:09:34.683Z,7.00
2023-02-22T02:12:05.056Z,7.14
2023-02-22T02:14:32.487Z,7.13
2023-02-22T02:17:01.485Z,7.13
2023-02-22T02:20:11.596Z,7.07
2023-02-22T02:22:57.258Z,7.07
2023-02-22T02:26:03.854Z,7.06
2023-02-22T02:28:39.652Z,7.05
2023-02-22T02:31:31.230Z,7.01
2023-02-22T02:34:50.552Z,7.02
2023-02-22T02:37:57.549Z,6.99
2023-02-22T02:40:50.894Z,6.87
2023-02-22T02:43:31.987Z,6.95
2023-02-22T02:46:09.702Z,6.94
2023-02-22T02:48:43.563Z,6.88
2023-02-22T02:51:14.526Z,6.79
2023-02-22T02:53:46.540Z,6.86
2023-02-22T02:56:13.386Z,6.86
2023-02-22T02:58:50.464Z,6.87
2023-02-22T03:01:50.215Z,6.89
2023-02-22T03:04:45.139Z,6.83
2023-02-22T03:07:45.793Z,6.74
2023-02-22T03:11:05.324Z,6.85
2023-02-22T03:14:08.513Z,6.88
2023-02-22T03:16:52.401Z,6.79
2023-02-22T03:19:40.387Z,6.88
2023-02-22T03:22:38.162Z,6.89
2023-02-22T03:25:15.343Z,6.79
2023-02-22T03:27:50.383Z,6.78
2023-02-22T03:30:26.960Z,6.79
2023-02-22T03:33:09.018Z,6.61
2023-02-22T03:35:42.437Z,6.76
2023-02-22T03:38:13.734Z,6.79
2023-02-22T03:40:45.970Z,6.75
2023-02-22T03:43:23.183Z,6.72
2023-02-22T03:45:51.238Z,6.64
2023-02-22T03:48:27.504Z,6.73
2023-02-22T03:50:54.733Z,6.68
2023-02-22T03:53:23.246Z,6.66
2023-02-22T03:55:52.646Z,6.44
2023-02-22T03:58:22.931Z,6.63
2023-02-22T04:00:53.378Z,6.45
2023-02-22T04:03:21.943Z,6.66
2023-02-22T04:05:49.499Z,6.41
2023-02-22T04:08:17.432Z,6.56
2023-02-22T04:10:44.479Z,6.45
2023-02-22T04:13:11.916Z,6.52
2023-02-22T04:15:38.867Z,6.53
2023-02-22T04:18:05.991Z,6.45
2023-02-22T04:20:34.841Z,6.42
2023-02-22T04:23:01.804Z,6.48
2023-02-22T04:25:28.697Z,6.46
2023-02-22T04:27:55.725Z,6.40
2023-02-22T04:30:23.394Z,6.41
2023-02-22T04:32:50.395Z,6.18
2023-02-22T04:35:17.347Z,6.34
2023-02-22T04:37:44.524Z,6.27
2023-02-22T04:40:11.714Z,6.42
2023-02-22T04:42:39.847Z,6.38
2023-02-22T04:45:09.222Z,6.26
2023-02-22T04:47:37.427Z,6.27
2023-02-22T04:50:07.483Z,6.29
2023-02-22T04:52:34.503Z,6.33
2023-02-22T04:55:01.531Z,6.27
2023-02-22T04:57:28.508Z,6.24
2023-02-22T04:59:55.616Z,6.33
2023-02-22T05:02:22.764Z,6.27
2023-02-22T05:04:50.474Z,6.28
2023-02-22T05:07:17.705Z,6.23
2023-02-22T05:09:44.636Z,6.33
2023-02-22T05:12:11.491Z,6.23
2023-02-22T05:14:39.046Z,6.27
2023-02-22T05:17:06.208Z,6.26
2023-02-22T05:19:33.100Z,6.26
2023-02-22T05:22:00.285Z,6.19
2023-02-22T05:24:27.384Z,6.14
2023-02-22T05:26:54.404Z,6.17
2023-02-22T05:29:21.359Z,6.14
2023-02-22T05:31:48.479Z,6.12
2023-02-22T05:34:16.047Z,6.17
2023-02-22T05:36:42.987Z,6.14
2023-02-22T05:39:09.973Z,6.23
2023-02-22T05:41:36.995Z,6.23
2023-02-22T05:44:04.200Z,6.17
2023-02-22T05:46:31.265Z,6.25
2023-02-22T05:48:58.202Z,6.19
2023-02-22T05:51:25.181Z,6.24
2023-02-22T05:53:52.575Z,6.19
2023-02-22T05:56:28.668Z,6.13
2023-02-22T05:58:56.952Z,6.21
2023-02-22T06:01:24.510Z,6.14
2023-02-22T06:03:52.401Z,6.19
2023-02-22T06:06:22.234Z,6.18
2023-02-22T06:08:49.925Z,6.04
2023-02-22T06:11:17.242Z,6.16
2023-02-22T06:13:51.563Z,6.19
2023-02-22T06:16:21.329Z,6.07
2023-02-22T06:18:49.134Z,6.18
2023-02-22T06:21:17.530Z,6.17
2023-02-22T06:23:44.685Z,6.16
2023-02-22T06:26:11.648Z,6.16
2023-02-22T06:28:38.604Z,6.12
2023-02-22T06:31:05.856Z,6.16
2023-02-22T06:33:33.030Z,6.17
2023-02-22T06:36:00.233Z,6.16
2023-02-22T06:38:27.786Z,6.07
2023-02-22T06:40:57.903Z,6.12
2023-02-22T06:43:25.768Z,6.09
2023-02-22T06:45:53.691Z,6.20
2023-02-22T06:48:20.736Z,6.00
2023-02-22T06:50:47.733Z,6.14
2023-02-22T06:53:14.642Z,6.09
2023-02-22T06:55:41.535Z,6.14
2023-02-22T06:58:08.430Z,6.11
2023-02-22T07:00:35.466Z,6.15
2023-02-22T07:03:04.714Z,6.18
2023-02-22T07:05:31.652Z,6.21
2023-02-22T07:08:05.309Z,6.20
2023-02-22T07:10:34.318Z,6.25
2023-02-22T07:13:02.301Z,6.18
2023-02-22T07:15:31.582Z,6.24
2023-02-22T07:17:59.498Z,6.17
2023-02-22T07:20:29.683Z,6.34
2023-02-22T07:22:56.637Z,6.37
2023-02-22T07:25:24.159Z,6.38
2023-02-22T07:27:52.493Z,6.40
2023-02-22T07:30:34.048Z,6.45
2023-02-22T07:33:07.606Z,6.38
2023-02-22T07:35:39.565Z,6.52
2023-02-22T07:38:08.210Z,6.55
2023-02-22T07:40:35.882Z,6.54
2023-02-22T07:43:16.238Z,6.55
2023-02-22T07:45:44.019Z,6.26
2023-02-22T07:48:16.927Z,6.42
2023-02-22T07:50:44.420Z,6.32
2023-02-22T07:53:15.944Z,6.29
2023-02-22T07:55:43.634Z,6.21
2023-02-22T07:58:15.157Z,6.24
2023-02-22T08:00:44.163Z,6.00
2023-02-22T08:03:13.462Z,6.38
2023-02-22T08:05:44.631Z,6.43
2023-02-22T08:08:11.594Z,6.50
2023-02-22T08:10:38.605Z,6.66
2023-02-22T08:13:06.065Z,6.69
2023-02-22T08:15:39.225Z,6.77
2023-02-22T08:18:12.525Z,6.81
2023-02-22T08:20:42.333Z,6.84
2023-02-22T08:23:11.161Z,6.84
2023-02-22T08:25:38.058Z,6.73
2023-02-22T08:28:11.879Z,6.83
2023-02-22T08:30:42.774Z,6.82
2023-02-22T08:33:14.381Z,6.93
2023-02-22T08:35:41.812Z,6.95
2023-02-22T08:38:16.980Z,6.96
2023-02-22T08:40:43.991Z,6.84
2023-02-22T08:43:11.060Z,7.08
2023-02-22T08:45:38.021Z,7.10
2023-02-22T08:48:05.129Z,7.19
2023-02-22T08:50:33.692Z,7.21
2023-02-22T08:53:02.739Z,7.29
2023-02-22T08:55:34.416Z,7.31
2023-02-22T08:58:03.100Z,7.32
2023-02-22T09:00:33.285Z,7.36
2023-02-22T09:03:10.660Z,7.39
2023-02-22T09:05:37.634Z,7.41
2023-02-22T09:08:05.151Z,7.24
2023-02-22T09:10:34.459Z,7.49
2023-02-22T09:13:02.328Z,7.53
2023-02-22T09:15:30.645Z,7.55
2023-02-22T09:17:57.637Z,7.52
2023-02-22T09:20:25.970Z,7.52
2023-02-22T09:22:53.861Z,7.52
2023-02-22T09:25:21.380Z,7.57
2023-02-22T09:27:53.268Z,7.62
2023-02-22T09:30:32.136Z,7.59
2023-02-22T09:33:06.994Z,7.62
2023-02-22T09:35:36.281Z,7.65
2023-02-22T09:38:08.167Z,7.66
2023-02-22T09:40:45.097Z,7.67
2023-02-22T09:44:01.132Z,7.65
2023-02-22T09:46:42.056Z,7.60
2023-02-22T09:49:21.985Z,7.72
2023-02-22T09:52:18.741Z,7.79
2023-02-22T09:55:30.864Z,7.78
2023-02-22T09:58:02.841Z,7.91
2023-02-22T10:00:34.293Z,7.95
2023-02-22T10:03:21.071Z,7.98
2023-02-22T10:06:11.845Z,8.09
2023-02-22T10:08:39.437Z,8.14
2023-02-22T10:11:23.328Z,8.25
2023-02-22T10:14:19.957Z,8.29
2023-02-22T10:17:00.968Z,8.39
2023-02-22T10:19:57.873Z,8.50
2023-02-22T10:23:07.042Z,8.47
2023-02-22T10:25:38.102Z,8.59
2023-02-22T10:28:27.528Z,8.74
2023-02-22T10:31:04.449Z,8.83
2023-02-22T10:33:38.575Z,8.84
2023-02-22T10:36:06.398Z,8.75
2023-02-22T10:38:35.000Z,8.91
2023-02-22T10:41:11.030Z,8.98
2023-02-22T10:43:41.666Z,9.08
2023-02-22T10:46:14.750Z,9.09
2023-02-22T10:48:45.980Z,9.28
2023-02-22T10:51:14.038Z,9.27
2023-02-22T10:53:41.600Z,9.41
2023-02-22T10:56:24.503Z,9.54
2023-02-22T10:59:02.440Z,9.62
2023-02-22T11:01:32.603Z,9.72
2023-02-22T11:04:14.771Z,9.82
2023-02-22T11:06:46.353Z,9.85
2023-02-22T11:09:22.691Z,9.86
2023-02-22T11:12:07.625Z,9.93
2023-02-22T11:14:34.495Z,9.80
2023-02-22T11:17:07.097Z,9.97
2023-02-22T11:19:36.357Z,10.06
2023-02-22T11:22:19.404Z,10.05
2023-02-22T11:24:56.139Z,10.04
2023-02-22T11:27:33.683Z,10.16
2023-02-22T11:30:32.532Z,10.13
2023-02-22T11:33:23.389Z,10.31
2023-02-22T11:35:59.503Z,10.32
2023-02-22T11:38:30.557Z,10.34
2023-02-22T11:41:32.322Z,10.46
2023-02-22T11:44:23.629Z,10.52
2023-02-22T11:46:53.470Z,10.63
2023-02-22T11:49:20.485Z,10.67
2023-02-22T11:52:28.241Z,10.78
2023-02-22T11:55:36.516Z,10.85
2023-02-22T11:58:40.845Z,10.92
2023-02-22T12:01:22.386Z,10.96
2023-02-22T12:04:40.987Z,10.86
2023-02-22T12:07:26.586Z,11.00
2023-02-22T12:10:18.986Z,11.04
2023-02-22T12:13:12.252Z,11.08
2023-02-22T12:16:21.728Z,11.29
2023-02-22T12:19:31.008Z,11.61
2023-02-22T12:22:04.501Z,11.65
2023-02-22T12:24:41.378Z,11.69
2023-02-22T12:27:20.569Z,11.69
2023-02-22T12:29:56.870Z,11.74
2023-02-22T12:32:35.749Z,11.78
2023-02-22T12:35:14.700Z,11.78
2023-02-22T12:38:14.811Z,11.88
2023-02-22T12:41:38.425Z,11.90
2023-02-22T12:44:35.465Z,11.96
2023-02-22T12:47:05.552Z,11.99
2023-02-22T12:49:44.108Z,12.22
2023-02-22T12:52:57.861Z,12.24
2023-02-22T12:55:32.503Z,12.20
2023-02-22T12:58:39.803Z,12.29
2023-02-22T13:01:24.234Z,12.20
2023-02-22T13:03:51.545Z,12.27
2023-02-22T13:06:34.367Z,12.30
2023-02-22T13:09:14.208Z,12.29
2023-02-22T13:12:14.886Z,12.25
2023-02-22T13:15:14.808Z,12.22
2023-02-22T13:18:12.625Z,12.36
2023-02-22T13:21:04.760Z,12.54
2023-02-22T13:23:46.714Z,12.41
2023-02-22T13:26:23.825Z,12.35
2023-02-22T13:29:21.700Z,12.38
2023-02-22T13:31:48.762Z,12.32
2023-02-22T13:34:36.770Z,12.46
2023-02-22T13:37:12.667Z,12.51
2023-02-22T13:40:13.729Z,12.51
2023-02-22T13:43:11.437Z,12.53
2023-02-22T13:46:12.891Z,12.57
2023-02-22T13:48:58.306Z,12.58
2023-02-22T13:52:00.033Z,12.71
2023-02-22T13:54:46.229Z,12.63
2023-02-22T13:57:25.055Z,12.68
2023-02-22T14:00:20.974Z,12.67
2023-02-22T14:03:07.904Z,12.73
2023-02-22T14:05:41.554Z,12.82
2023-02-22T14:08:28.925Z,12.71
2023-02-22T14:10:56.946Z,12.65
2023-02-22T14:13:33.293Z,12.54
2023-02-22T14:16:00.387Z,12.65
2023-02-22T14:18:36.389Z,12.79
2023-02-22T14:21:13.064Z,13.15
2023-02-22T14:23:41.896Z,13.23
2023-02-22T14:26:27.442Z,13.23
2023-02-22T14:29:15.571Z,13.19
2023-02-22T14:31:46.412Z,13.09
2023-02-22T14:34:22.962Z,13.06
2023-02-22T14:37:05.221Z,12.91
2023-02-22T14:39:35.204Z,13.16
2023-02-22T14:42:24.415Z,13.18
2023-02-22T14:45:12.746Z,13.26
2023-02-22T14:47:44.033Z,13.34
2023-02-22T14:50:45.158Z,13.38
2023-02-22T14:53:30.145Z,13.33
2023-02-22T14:56:06.982Z,13.34
2023-02-22T14:58:45.891Z,13.15
2023-02-22T15:01:48.931Z,13.08
2023-02-22T15:04:27.816Z,13.00
2023-02-22T15:06:57.661Z,12.95
2023-02-22T15:09:31.070Z,13.02
2023-02-22T15:12:05.521Z,13.06
2023-02-22T15:14:38.959Z,13.03
2023-02-22T15:17:24.858Z,12.97
2023-02-22T15:19:52.672Z,12.83
2023-02-22T15:22:31.599Z,12.74
2023-02-22T15:25:02.103Z,12.96
2023-02-22T15:27:29.618Z,12.99
2023-02-22T15:30:05.083Z,13.00
2023-02-22T15:32:49.933Z,13.09
2023-02-22T15:35:30.130Z,12.94
2023-02-22T15:38:15.860Z,12.97
2023-02-22T15:40:45.134Z,13.01
2023-02-22T15:43:28.533Z,12.88
2023-02-22T15:45:57.836Z,13.09
2023-02-22T15:48:26.812Z,13.13
2023-02-22T15:51:10.558Z,13.05
2023-02-22T15:53:49.716Z,13.10
2023-02-22T15:56:24.535Z,13.07
2023-02-22T15:58:59.577Z,13.09
2023-02-22T16:01:27.073Z,13.15
2023-02-22T16:03:57.718Z,13.21
2023-02-22T16:06:35.357Z,13.22
2023-02-22T16:09:15.678Z,13.16
2023-02-22T16:11:45.402Z,13.04
2023-02-22T16:14:31.734Z,13.12
2023-02-22T16:17:30.883Z,13.13
2023-02-22T16:20:00.894Z,13.10
2023-02-22T16:22:34.482Z,12.99
2023-02-22T16:25:19.705Z,12.95
2023-02-22T16:27:50.863Z,12.91
2023-02-22T16:30:23.968Z,12.99
2023-02-22T16:32:53.572Z,13.07
2023-02-22T16:35:20.591Z,13.04
2023-02-22T16:37:50.295Z,13.05
2023-02-22T16:40:26.295Z,13.01
2023-02-22T16:42:53.412Z,13.04
2023-02-22T16:45:22.052Z,12.86
2023-02-22T16:47:53.673Z,12.68
2023-02-22T16:50:22.013Z,12.92
2023-02-22T16:52:48.857Z,12.93
2023-02-22T16:55:17.903Z,12.69
2023-02-22T16:57:45.022Z,12.70
2023-02-22T17:00:19.029Z,12.62
2023-02-22T17:02:45.879Z,12.69
2023-02-22T17:05:16.669Z,12.58
2023-02-22T17:07:43.617Z,12.46
2023-02-22T17:10:20.064Z,12.37
2023-02-22T17:12:50.500Z,12.30
2023-02-22T17:15:34.967Z,12.38
2023-02-22T17:18:13.934Z,12.33
2023-02-22T17:20:40.873Z,12.29
2023-02-22T17:23:09.854Z,12.31
2023-02-22T17:25:43.239Z,12.26
2023-02-22T17:28:10.496Z,12.28
2023-02-22T17:30:39.155Z,12.25
2023-02-22T17:33:09.582Z,12.19
2023-02-22T17:35:39.403Z,12.32
2023-02-22T17:38:07.416Z,12.29
2023-02-22T17:40:37.183Z,12.18
2023-02-22T17:43:08.748Z,12.16
2023-02-22T17:45:39.491Z,12.10
2023-02-22T17:48:08.933Z,12.09
2023-02-22T17:50:41.353Z,12.06
2023-02-22T17:53:10.903Z,11.91
2023-02-22T17:55:40.693Z,11.92
2023-02-22T17:58:14.626Z,11.94
2023-02-22T18:00:49.883Z,11.99
2023-02-22T18:03:25.308Z,11.97
2023-02-22T18:05:59.962Z,11.93
2023-02-22T18:08:30.042Z,11.84
2023-02-22T18:10:57.076Z,11.81
2023-02-22T18:13:27.001Z,11.81
2023-02-22T18:16:00.074Z,11.76
2023-02-22T18:18:27.875Z,11.63
2023-02-22T18:20:59.422Z,11.71
2023-02-22T18:23:31.084Z,11.74
2023-02-22T18:26:15.765Z,11.80
2023-02-22T18:28:43.350Z,11.67
2023-02-22T18:31:16.539Z,11.68
2023-02-22T18:33:46.633Z,11.63
2023-02-22T18:36:14.685Z,11.62
2023-02-22T18:38:43.353Z,11.52
2023-02-22T18:41:16.937Z,11.53
2023-02-22T18:43:46.307Z,11.59
2023-02-22T18:46:18.222Z,11.61
2023-02-22T18:48:52.600Z,11.56
2023-02-22T18:51:19.538Z,11.53
2023-02-22T18:53:50.102Z,11.61
2023-02-22T18:56:21.880Z,11.44
2023-02-22T18:59:00.855Z,11.49
2023-02-22T19:01:30.003Z,11.51
2023-02-22T19:03:57.261Z,11.35
2023-02-22T19:06:24.322Z,11.50
2023-02-22T19:08:51.770Z,11.39
2023-02-22T19:11:23.780Z,11.51
2023-02-22T19:13:54.402Z,11.52
2023-02-22T19:16:24.094Z,11.44
2023-02-22T19:18:54.288Z,11.55
2023-02-22T19:21:21.730Z,11.55
2023-02-22T19:23:49.365Z,11.32
2023-02-22T19:26:25.363Z,11.47
2023-02-22T19:28:55.075Z,11.56
2023-02-22T19:31:31.951Z,11.55
2023-02-22T19:34:05.897Z,11.54
2023-02-22T19:36:33.102Z,11.52
2023-02-22T19:39:02.697Z,11.47
2023-02-22T19:41:30.840Z,11.48
2023-02-22T19:43:58.284Z,11.49
2023-02-22T19:46:25.550Z,11.42
2023-02-22T19:48:55.275Z,11.40
2023-02-22T19:51:27.907Z,11.32
2023-02-22T19:54:02.741Z,11.36
2023-02-22T19:56:31.243Z,11.26
2023-02-22T19:59:12.681Z,11.34
2023-02-22T20:01:44.105Z,11.24
2023-02-22T20:04:18.194Z,11.29
2023-02-22T20:06:46.705Z,11.23
2023-02-22T20:09:17.916Z,11.26
2023-02-22T20:11:48.456Z,11.26
2023-02-22T20:14:25.202Z,11.23
2023-02-22T20:16:53.718Z,11.22
2023-02-22T20:19:22.611Z,11.14
2023-02-22T20:21:49.762Z,11.19
2023-02-22T20:24:18.400Z,11.17
2023-02-22T20:26:46.874Z,11.17
2023-02-22T20:29:14.964Z,11.10
2023-02-22T20:31:44.375Z,10.89
2023-02-22T20:34:11.772Z,10.74
2023-02-22T20:36:41.527Z,10.81
2023-02-22T20:39:13.336Z,10.84
2023-02-22T20:41:45.829Z,10.88
2023-02-22T20:44:16.331Z,10.91
2023-02-22T20:46:45.037Z,10.90
2023-02-22T20:49:17.142Z,10.91
2023-02-22T20:51:45.590Z,10.80
2023-02-22T20:54:13.150Z,10.88
2023-02-22T20:56:42.885Z,10.82
2023-02-22T20:59:13.100Z,10.92
2023-02-22T21:01:40.464Z,10.92
2023-02-22T21:04:10.044Z,10.92
2023-02-22T21:06:38.984Z,10.90
2023-02-22T21:09:08.672Z,10.90
2023-02-22T21:11:35.802Z,10.91
2023-02-22T21:14:03.354Z,10.86
2023-02-22T21:16:36.484Z,10.81
2023-02-22T21:19:07.086Z,10.79
2023-02-22T21:21:35.290Z,10.81
2023-02-22T21:24:02.433Z,10.77
2023-02-22T21:26:32.873Z,10.73
2023-02-22T21:29:03.879Z,10.62
2023-02-22T21:31:31.689Z,10.64
2023-02-22T21:34:00.332Z,10.68
2023-02-22T21:36:28.578Z,10.71
2023-02-22T21:39:03.074Z,10.73
2023-02-22T21:41:31.164Z,10.73
2023-02-22T21:43:59.610Z,10.71
2023-02-22T21:46:28.982Z,10.69
2023-02-22T21:48:58.600Z,10.68
2023-02-22T21:51:32.036Z,10.44
2023-02-22T21:54:03.126Z,10.41
2023-02-22T21:56:32.345Z,10.49
2023-02-22T21:59:15.611Z,10.50
2023-02-22T22:01:50.196Z,10.47
2023-02-22T22:04:22.245Z,10.53
2023-02-22T22:06:52.267Z,10.52
2023-02-22T22:09:21.875Z,10.46
2023-02-22T22:11:54.796Z,10.49
2023-02-22T22:14:24.241Z,10.50
2023-02-22T22:16:55.917Z,10.41
2023-02-22T22:19:23.005Z,10.40
2023-02-22T22:21:54.021Z,10.38
2023-02-22T22:24:22.736Z,10.41
2023-02-22T22:26:54.434Z,10.40
2023-02-22T22:29:24.287Z,10.33
2023-02-22T22:31:51.886Z,10.30
2023-02-22T22:34:19.515Z,10.30
2023-02-22T22:36:46.532Z,10.27
2023-02-22T22:39:13.350Z,10.21
2023-02-22T22:41:42.233Z,10.27
2023-02-22T22:44:09.873Z,10.26
2023-02-22T22:46:40.036Z,10.23
2023-02-22T22:49:13.404Z,10.19
2023-02-22T22:51:41.309Z,10.12
2023-02-22T22:54:11.980Z,10.13
2023-02-22T22:56:39.240Z,9.99
2023-02-22T22:59:07.997Z,9.96
2023-02-22T23:01:44.421Z,10.07
2023-02-22T23:04:16.829Z,10.04
2023-02-22T23:06:54.414Z,9.94
2023-02-22T23:09:29.602Z,9.90
2023-02-22T23:12:09.027Z,9.93
2023-02-22T23:14:45.190Z,9.91
2023-02-22T23:17:26.782Z,9.90
2023-02-22T23:19:53.637Z,9.84
2023-02-22T23:22:21.238Z,9.86
2023-02-22T23:24:48.413Z,9.82
2023-02-22T23:27:15.436Z,9.83
2023-02-22T23:29:46.531Z,9.89
2023-02-22T23:32:14.272Z,9.90
2023-02-22T23:34:41.461Z,9.89
2023-02-22T23:37:10.957Z,9.91
2023-02-22T23:39:38.341Z,9.80
2023-02-22T23:42:08.650Z,9.92
2023-02-22T23:44:35.589Z,9.93
2023-02-22T23:47:03.840Z,9.89
2023-02-22T23:49:37.922Z,9.84
2023-02-22T23:52:07.096Z,9.78
2023-02-22T23:54:40.181Z,9.67
2023-02-22T23:57:08.833Z,9.87
2023-02-22T23:59:40.315Z,9.76
